sensor_id;sensor_type;location;lat;lon;timestamp;temperature;humidity
56538;DHT22;42435;53.292;6.000;2023-04-24T00:01:47;12.40;83.00
56538;DHT22;42435;53.292;6.000;2023-04-24T00:04:13;12.40;83.00
56538;DHT22;42435;53.292;6.000;2023-04-24T00:06:47;12.40;82.90
56538;DHT22;42435;53.292;6.000;2023-04-24T00:09:19;12.40;82.80
56538;DHT22;42435;53.292;6.000;2023-04-24T00:11:44;12.40;82.70
56538;DHT22;42435;53.292;6.000;2023-04-24T00:14:10;12.40;82.70
56538;DHT22;42435;53.292;6.000;2023-04-24T00:16:38;12.40;82.70
56538;DHT22;42435;53.292;6.000;2023-04-24T00:19:04;12.40;82.80
56538;DHT22;42435;53.292;6.000;2023-04-24T00:21:31;12.40;82.90
56538;DHT22;42435;53.292;6.000;2023-04-24T00:23:58;12.40;82.90
56538;DHT22;42435;53.292;6.000;2023-04-24T00:26:26;12.40;83.00
56538;DHT22;42435;53.292;6.000;2023-04-24T00:28:52;12.40;83.10
56538;DHT22;42435;53.292;6.000;2023-04-24T00:31:17;12.40;83.30
56538;DHT22;42435;53.292;6.000;2023-04-24T00:33:43;12.40;83.50
56538;DHT22;42435;53.292;6.000;2023-04-24T00:36:08;12.40;83.60
56538;DHT22;42435;53.292;6.000;2023-04-24T00:38:34;12.40;83.50
56538;DHT22;42435;53.292;6.000;2023-04-24T00:41:00;12.40;83.60
56538;DHT22;42435;53.292;6.000;2023-04-24T00:43:26;12.50;83.50
56538;DHT22;42435;53.292;6.000;2023-04-24T00:45:51;12.50;83.50
56538;DHT22;42435;53.292;6.000;2023-04-24T00:48:20;12.50;83.50
56538;DHT22;42435;53.292;6.000;2023-04-24T00:50:46;12.50;83.50
56538;DHT22;42435;53.292;6.000;2023-04-24T00:53:12;12.50;83.40
56538;DHT22;42435;53.292;6.000;2023-04-24T00:55:37;12.50;83.30
56538;DHT22;42435;53.292;6.000;2023-04-24T00:58:03;12.50;83.40
56538;DHT22;42435;53.292;6.000;2023-04-24T01:00:30;12.50;83.30
56538;DHT22;42435;53.292;6.000;2023-04-24T01:02:58;12.60;83.30
56538;DHT22;42435;53.292;6.000;2023-04-24T01:05:24;12.60;83.20
56538;DHT22;42435;53.292;6.000;2023-04-24T01:07:50;12.60;83.20
56538;DHT22;42435;53.292;6.000;2023-04-24T01:10:16;12.60;83.20
56538;DHT22;42435;53.292;6.000;2023-04-24T01:12:43;12.60;83.00
56538;DHT22;42435;53.292;6.000;2023-04-24T01:15:09;12.60;82.90
56538;DHT22;42435;53.292;6.000;2023-04-24T01:17:35;12.60;82.80
56538;DHT22;42435;53.292;6.000;2023-04-24T01:20:01;12.60;82.80
56538;DHT22;42435;53.292;6.000;2023-04-24T01:22:29;12.60;82.80
56538;DHT22;42435;53.292;6.000;2023-04-24T01:24:55;12.50;82.80
56538;DHT22;42435;53.292;6.000;2023-04-24T01:27:20;12.50;82.70
56538;DHT22;42435;53.292;6.000;2023-04-24T01:29:46;12.50;82.70
56538;DHT22;42435;53.292;6.000;2023-04-24T01:32:14;12.50;82.70
56538;DHT22;42435;53.292;6.000;2023-04-24T01:34:40;12.50;82.60
56538;DHT22;42435;53.292;6.000;2023-04-24T01:37:06;12.40;82.60
56538;DHT22;42435;53.292;6.000;2023-04-24T01:39:32;12.50;82.60
56538;DHT22;42435;53.292;6.000;2023-04-24T01:42:02;12.40;82.60
56538;DHT22;42435;53.292;6.000;2023-04-24T01:44:28;12.40;82.60
56538;DHT22;42435;53.292;6.000;2023-04-24T01:46:54;12.40;82.50
56538;DHT22;42435;53.292;6.000;2023-04-24T01:49:20;12.40;82.60
56538;DHT22;42435;53.292;6.000;2023-04-24T01:51:46;12.40;82.60
56538;DHT22;42435;53.292;6.000;2023-04-24T01:54:12;12.40;82.50
56538;DHT22;42435;53.292;6.000;2023-04-24T01:56:40;12.40;82.50
56538;DHT22;42435;53.292;6.000;2023-04-24T01:59:07;12.40;82.50
56538;DHT22;42435;53.292;6.000;2023-04-24T02:01:35;12.40;82.50
56538;DHT22;42435;53.292;6.000;2023-04-24T02:04:04;12.40;82.50
56538;DHT22;42435;53.292;6.000;2023-04-24T02:06:30;12.40;82.50
56538;DHT22;42435;53.292;6.000;2023-04-24T02:09:00;12.40;82.50
56538;DHT22;42435;53.292;6.000;2023-04-24T02:11:26;12.30;82.60
56538;DHT22;42435;53.292;6.000;2023-04-24T02:13:52;12.30;82.60
56538;DHT22;42435;53.292;6.000;2023-04-24T02:16:18;12.30;82.70
56538;DHT22;42435;53.292;6.000;2023-04-24T02:18:43;12.30;82.80
56538;DHT22;42435;53.292;6.000;2023-04-24T02:21:09;12.30;82.80
56538;DHT22;42435;53.292;6.000;2023-04-24T02:23:35;12.30;82.90
56538;DHT22;42435;53.292;6.000;2023-04-24T02:26:01;12.30;82.90
56538;DHT22;42435;53.292;6.000;2023-04-24T02:28:26;12.30;82.90
56538;DHT22;42435;53.292;6.000;2023-04-24T02:30:52;12.30;82.90
56538;DHT22;42435;53.292;6.000;2023-04-24T02:33:17;12.30;82.90
56538;DHT22;42435;53.292;6.000;2023-04-24T02:35:43;12.30;83.00
56538;DHT22;42435;53.292;6.000;2023-04-24T02:38:09;12.30;82.90
56538;DHT22;42435;53.292;6.000;2023-04-24T02:40:34;12.30;83.00
56538;DHT22;42435;53.292;6.000;2023-04-24T02:43:00;12.30;83.00
56538;DHT22;42435;53.292;6.000;2023-04-24T02:45:25;12.30;83.10
56538;DHT22;42435;53.292;6.000;2023-04-24T02:47:51;12.30;83.00
56538;DHT22;42435;53.292;6.000;2023-04-24T02:50:16;12.30;83.10
56538;DHT22;42435;53.292;6.000;2023-04-24T02:52:42;12.30;83.10
56538;DHT22;42435;53.292;6.000;2023-04-24T02:55:14;12.30;83.10
56538;DHT22;42435;53.292;6.000;2023-04-24T02:57:39;12.30;83.20
56538;DHT22;42435;53.292;6.000;2023-04-24T03:00:05;12.30;83.10
56538;DHT22;42435;53.292;6.000;2023-04-24T03:02:32;12.40;83.20
56538;DHT22;42435;53.292;6.000;2023-04-24T03:04:58;12.40;83.10
56538;DHT22;42435;53.292;6.000;2023-04-24T03:07:23;12.40;82.90
56538;DHT22;42435;53.292;6.000;2023-04-24T03:09:49;12.30;82.70
56538;DHT22;42435;53.292;6.000;2023-04-24T03:12:15;12.20;82.50
56538;DHT22;42435;53.292;6.000;2023-04-24T03:14:43;12.20;82.40
56538;DHT22;42435;53.292;6.000;2023-04-24T03:17:08;12.10;82.30
56538;DHT22;42435;53.292;6.000;2023-04-24T03:19:34;12.00;82.40
56538;DHT22;42435;53.292;6.000;2023-04-24T03:22:02;11.90;82.50
56538;DHT22;42435;53.292;6.000;2023-04-24T03:24:27;11.80;82.70
56538;DHT22;42435;53.292;6.000;2023-04-24T03:26:53;11.80;82.80
56538;DHT22;42435;53.292;6.000;2023-04-24T03:29:19;11.70;82.90
56538;DHT22;42435;53.292;6.000;2023-04-24T03:31:44;11.70;83.00
56538;DHT22;42435;53.292;6.000;2023-04-24T03:34:10;11.70;83.10
56538;DHT22;42435;53.292;6.000;2023-04-24T03:36:36;11.60;83.20
56538;DHT22;42435;53.292;6.000;2023-04-24T03:39:01;11.60;83.30
56538;DHT22;42435;53.292;6.000;2023-04-24T03:41:27;11.60;83.40
56538;DHT22;42435;53.292;6.000;2023-04-24T03:43:52;11.50;83.40
56538;DHT22;42435;53.292;6.000;2023-04-24T03:46:18;11.50;83.50
56538;DHT22;42435;53.292;6.000;2023-04-24T03:48:44;11.50;83.60
56538;DHT22;42435;53.292;6.000;2023-04-24T03:51:09;11.50;83.80
56538;DHT22;42435;53.292;6.000;2023-04-24T03:53:35;11.50;84.00
56538;DHT22;42435;53.292;6.000;2023-04-24T03:56:00;11.50;84.00
56538;DHT22;42435;53.292;6.000;2023-04-24T03:58:26;11.50;84.10
56538;DHT22;42435;53.292;6.000;2023-04-24T04:00:51;11.50;84.20
56538;DHT22;42435;53.292;6.000;2023-04-24T04:03:17;11.60;84.30
56538;DHT22;42435;53.292;6.000;2023-04-24T04:05:43;11.60;84.30
56538;DHT22;42435;53.292;6.000;2023-04-24T04:08:08;11.60;84.40
56538;DHT22;42435;53.292;6.000;2023-04-24T04:10:34;11.60;84.40
56538;DHT22;42435;53.292;6.000;2023-04-24T04:13:00;11.60;84.40
56538;DHT22;42435;53.292;6.000;2023-04-24T04:15:25;11.60;84.40
56538;DHT22;42435;53.292;6.000;2023-04-24T04:17:51;11.60;84.30
56538;DHT22;42435;53.292;6.000;2023-04-24T04:20:20;11.60;84.40
56538;DHT22;42435;53.292;6.000;2023-04-24T04:22:45;11.60;84.40
56538;DHT22;42435;53.292;6.000;2023-04-24T04:25:12;11.60;84.30
56538;DHT22;42435;53.292;6.000;2023-04-24T04:27:39;11.60;84.30
56538;DHT22;42435;53.292;6.000;2023-04-24T04:30:07;11.60;84.20
56538;DHT22;42435;53.292;6.000;2023-04-24T04:32:34;11.50;84.20
56538;DHT22;42435;53.292;6.000;2023-04-24T04:35:00;11.50;84.30
56538;DHT22;42435;53.292;6.000;2023-04-24T04:37:30;11.50;84.30
56538;DHT22;42435;53.292;6.000;2023-04-24T04:39:59;11.50;84.20
56538;DHT22;42435;53.292;6.000;2023-04-24T04:42:27;11.50;84.20
56538;DHT22;42435;53.292;6.000;2023-04-24T04:44:53;11.40;84.10
56538;DHT22;42435;53.292;6.000;2023-04-24T04:47:21;11.40;84.00
56538;DHT22;42435;53.292;6.000;2023-04-24T04:49:48;11.40;84.00
56538;DHT22;42435;53.292;6.000;2023-04-24T04:52:14;11.40;84.10
56538;DHT22;42435;53.292;6.000;2023-04-24T04:54:40;11.30;84.00
56538;DHT22;42435;53.292;6.000;2023-04-24T04:57:06;11.30;83.90
56538;DHT22;42435;53.292;6.000;2023-04-24T04:59:31;11.20;84.00
56538;DHT22;42435;53.292;6.000;2023-04-24T05:01:57;11.20;84.20
56538;DHT22;42435;53.292;6.000;2023-04-24T05:04:22;11.20;84.20
56538;DHT22;42435;53.292;6.000;2023-04-24T05:06:48;11.20;84.10
56538;DHT22;42435;53.292;6.000;2023-04-24T05:09:13;11.20;84.10
56538;DHT22;42435;53.292;6.000;2023-04-24T05:11:39;11.20;84.10
56538;DHT22;42435;53.292;6.000;2023-04-24T05:14:05;11.10;84.10
56538;DHT22;42435;53.292;6.000;2023-04-24T05:16:30;11.10;84.10
56538;DHT22;42435;53.292;6.000;2023-04-24T05:18:56;11.10;84.10
56538;DHT22;42435;53.292;6.000;2023-04-24T05:21:22;11.00;84.10
56538;DHT22;42435;53.292;6.000;2023-04-24T05:23:48;11.10;84.20
56538;DHT22;42435;53.292;6.000;2023-04-24T05:26:13;11.10;84.40
56538;DHT22;42435;53.292;6.000;2023-04-24T05:28:39;11.10;84.40
56538;DHT22;42435;53.292;6.000;2023-04-24T05:31:05;11.20;84.40
56538;DHT22;42435;53.292;6.000;2023-04-24T05:33:32;11.10;84.40
56538;DHT22;42435;53.292;6.000;2023-04-24T05:35:57;11.20;84.40
56538;DHT22;42435;53.292;6.000;2023-04-24T05:38:23;11.20;84.40
56538;DHT22;42435;53.292;6.000;2023-04-24T05:40:51;11.20;84.20
56538;DHT22;42435;53.292;6.000;2023-04-24T05:43:17;11.20;84.10
56538;DHT22;42435;53.292;6.000;2023-04-24T05:45:42;11.10;84.00
56538;DHT22;42435;53.292;6.000;2023-04-24T05:48:08;11.10;84.00
56538;DHT22;42435;53.292;6.000;2023-04-24T05:50:37;11.10;84.00
56538;DHT22;42435;53.292;6.000;2023-04-24T05:53:03;11.00;83.90
56538;DHT22;42435;53.292;6.000;2023-04-24T05:55:33;11.00;83.80
56538;DHT22;42435;53.292;6.000;2023-04-24T05:57:59;10.90;83.80
56538;DHT22;42435;53.292;6.000;2023-04-24T06:00:25;10.90;84.00
56538;DHT22;42435;53.292;6.000;2023-04-24T06:02:51;10.80;84.10
56538;DHT22;42435;53.292;6.000;2023-04-24T06:05:18;10.80;84.10
56538;DHT22;42435;53.292;6.000;2023-04-24T06:07:44;10.80;84.20
56538;DHT22;42435;53.292;6.000;2023-04-24T06:10:10;10.70;84.20
56538;DHT22;42435;53.292;6.000;2023-04-24T06:12:36;10.70;84.20
56538;DHT22;42435;53.292;6.000;2023-04-24T06:15:02;10.70;84.10
56538;DHT22;42435;53.292;6.000;2023-04-24T06:17:27;10.70;84.10
56538;DHT22;42435;53.292;6.000;2023-04-24T06:19:56;10.70;84.20
56538;DHT22;42435;53.292;6.000;2023-04-24T06:22:21;10.70;84.20
56538;DHT22;42435;53.292;6.000;2023-04-24T06:24:47;10.60;84.10
56538;DHT22;42435;53.292;6.000;2023-04-24T06:27:14;10.70;84.00
56538;DHT22;42435;53.292;6.000;2023-04-24T06:29:39;10.70;84.00
56538;DHT22;42435;53.292;6.000;2023-04-24T06:32:05;10.70;84.00
56538;DHT22;42435;53.292;6.000;2023-04-24T06:34:31;10.70;84.00
56538;DHT22;42435;53.292;6.000;2023-04-24T06:36:58;10.70;83.80
56538;DHT22;42435;53.292;6.000;2023-04-24T06:39:23;10.60;83.80
56538;DHT22;42435;53.292;6.000;2023-04-24T06:41:49;10.60;83.80
56538;DHT22;42435;53.292;6.000;2023-04-24T06:44:15;10.60;83.80
56538;DHT22;42435;53.292;6.000;2023-04-24T06:46:41;10.60;83.70
56538;DHT22;42435;53.292;6.000;2023-04-24T06:49:07;10.50;83.70
56538;DHT22;42435;53.292;6.000;2023-04-24T06:51:32;10.40;83.60
56538;DHT22;42435;53.292;6.000;2023-04-24T06:53:59;10.40;83.70
56538;DHT22;42435;53.292;6.000;2023-04-24T06:56:25;10.40;83.60
56538;DHT22;42435;53.292;6.000;2023-04-24T06:58:51;10.40;83.70
56538;DHT22;42435;53.292;6.000;2023-04-24T07:01:17;10.40;83.80
56538;DHT22;42435;53.292;6.000;2023-04-24T07:03:43;10.30;83.80
56538;DHT22;42435;53.292;6.000;2023-04-24T07:06:09;10.30;83.80
56538;DHT22;42435;53.292;6.000;2023-04-24T07:08:38;10.30;83.80
56538;DHT22;42435;53.292;6.000;2023-04-24T07:11:04;10.30;83.80
56538;DHT22;42435;53.292;6.000;2023-04-24T07:13:29;10.30;83.80
56538;DHT22;42435;53.292;6.000;2023-04-24T07:15:55;10.30;83.70
56538;DHT22;42435;53.292;6.000;2023-04-24T07:18:21;10.30;83.50
56538;DHT22;42435;53.292;6.000;2023-04-24T07:20:47;10.30;83.40
56538;DHT22;42435;53.292;6.000;2023-04-24T07:23:15;10.30;83.60
56538;DHT22;42435;53.292;6.000;2023-04-24T07:25:41;10.30;83.60
56538;DHT22;42435;53.292;6.000;2023-04-24T07:28:06;10.30;83.60
56538;DHT22;42435;53.292;6.000;2023-04-24T07:30:35;10.30;83.60
56538;DHT22;42435;53.292;6.000;2023-04-24T07:33:00;10.30;83.50
56538;DHT22;42435;53.292;6.000;2023-04-24T07:35:26;10.40;83.40
56538;DHT22;42435;53.292;6.000;2023-04-24T07:37:55;10.30;83.30
56538;DHT22;42435;53.292;6.000;2023-04-24T07:40:24;10.30;83.20
56538;DHT22;42435;53.292;6.000;2023-04-24T07:43:03;10.30;83.10
56538;DHT22;42435;53.292;6.000;2023-04-24T07:45:28;10.30;82.90
56538;DHT22;42435;53.292;6.000;2023-04-24T07:47:55;10.20;82.70
56538;DHT22;42435;53.292;6.000;2023-04-24T07:50:20;10.20;82.50
56538;DHT22;42435;53.292;6.000;2023-04-24T07:52:46;10.20;82.70
56538;DHT22;42435;53.292;6.000;2023-04-24T07:55:12;10.20;82.60
56538;DHT22;42435;53.292;6.000;2023-04-24T07:57:38;10.20;82.60
56538;DHT22;42435;53.292;6.000;2023-04-24T08:00:07;10.10;82.60
56538;DHT22;42435;53.292;6.000;2023-04-24T08:02:33;10.10;82.70
56538;DHT22;42435;53.292;6.000;2023-04-24T08:04:59;10.10;82.80
56538;DHT22;42435;53.292;6.000;2023-04-24T08:07:30;10.20;82.90
56538;DHT22;42435;53.292;6.000;2023-04-24T08:09:56;10.20;82.70
56538;DHT22;42435;53.292;6.000;2023-04-24T08:12:22;10.30;82.50
56538;DHT22;42435;53.292;6.000;2023-04-24T08:14:48;10.30;82.50
56538;DHT22;42435;53.292;6.000;2023-04-24T08:17:14;10.40;82.50
56538;DHT22;42435;53.292;6.000;2023-04-24T08:19:40;10.40;82.40
56538;DHT22;42435;53.292;6.000;2023-04-24T08:22:14;10.50;82.00
56538;DHT22;42435;53.292;6.000;2023-04-24T08:24:39;10.50;81.90
56538;DHT22;42435;53.292;6.000;2023-04-24T08:27:05;10.60;81.70
56538;DHT22;42435;53.292;6.000;2023-04-24T08:29:32;10.70;81.60
56538;DHT22;42435;53.292;6.000;2023-04-24T08:32:00;10.70;81.60
56538;DHT22;42435;53.292;6.000;2023-04-24T08:34:26;10.80;81.30
56538;DHT22;42435;53.292;6.000;2023-04-24T08:36:52;10.80;81.20
56538;DHT22;42435;53.292;6.000;2023-04-24T08:39:18;10.90;81.40
56538;DHT22;42435;53.292;6.000;2023-04-24T08:41:48;11.00;81.40
56538;DHT22;42435;53.292;6.000;2023-04-24T08:44:14;11.10;81.30
56538;DHT22;42435;53.292;6.000;2023-04-24T08:46:43;11.20;80.70
56538;DHT22;42435;53.292;6.000;2023-04-24T08:49:17;11.20;80.20
56538;DHT22;42435;53.292;6.000;2023-04-24T08:51:43;11.10;80.10
56538;DHT22;42435;53.292;6.000;2023-04-24T08:54:13;11.10;79.90
56538;DHT22;42435;53.292;6.000;2023-04-24T08:56:40;11.10;79.90
56538;DHT22;42435;53.292;6.000;2023-04-24T08:59:07;11.10;80.10
56538;DHT22;42435;53.292;6.000;2023-04-24T09:01:33;11.20;80.00
56538;DHT22;42435;53.292;6.000;2023-04-24T09:04:03;11.20;79.90
56538;DHT22;42435;53.292;6.000;2023-04-24T09:06:30;11.20;79.60
56538;DHT22;42435;53.292;6.000;2023-04-24T09:09:00;11.20;79.40
56538;DHT22;42435;53.292;6.000;2023-04-24T09:11:26;11.20;79.30
56538;DHT22;42435;53.292;6.000;2023-04-24T09:13:56;11.30;79.00
56538;DHT22;42435;53.292;6.000;2023-04-24T09:16:22;11.30;78.80
56538;DHT22;42435;53.292;6.000;2023-04-24T09:18:50;11.40;78.50
56538;DHT22;42435;53.292;6.000;2023-04-24T09:21:15;11.40;78.10
56538;DHT22;42435;53.292;6.000;2023-04-24T09:23:41;11.50;77.60
56538;DHT22;42435;53.292;6.000;2023-04-24T09:26:09;11.60;77.30
56538;DHT22;42435;53.292;6.000;2023-04-24T09:28:37;11.70;77.00
56538;DHT22;42435;53.292;6.000;2023-04-24T09:31:14;11.80;77.00
56538;DHT22;42435;53.292;6.000;2023-04-24T09:34:00;11.90;76.40
56538;DHT22;42435;53.292;6.000;2023-04-24T09:36:33;12.00;76.20
56538;DHT22;42435;53.292;6.000;2023-04-24T09:39:03;12.00;76.10
56538;DHT22;42435;53.292;6.000;2023-04-24T09:41:32;12.10;76.10
56538;DHT22;42435;53.292;6.000;2023-04-24T09:44:11;12.10;75.80
56538;DHT22;42435;53.292;6.000;2023-04-24T09:46:37;12.10;75.60
56538;DHT22;42435;53.292;6.000;2023-04-24T09:49:24;12.10;74.80
56538;DHT22;42435;53.292;6.000;2023-04-24T09:51:50;12.10;74.10
56538;DHT22;42435;53.292;6.000;2023-04-24T09:54:18;12.10;74.30
56538;DHT22;42435;53.292;6.000;2023-04-24T09:56:48;12.10;74.00
56538;DHT22;42435;53.292;6.000;2023-04-24T09:59:15;12.10;73.50
56538;DHT22;42435;53.292;6.000;2023-04-24T10:01:41;12.20;73.70
56538;DHT22;42435;53.292;6.000;2023-04-24T10:04:18;12.20;73.60
56538;DHT22;42435;53.292;6.000;2023-04-24T10:06:44;12.30;73.40
56538;DHT22;42435;53.292;6.000;2023-04-24T10:09:10;12.40;73.30
56538;DHT22;42435;53.292;6.000;2023-04-24T10:11:44;12.50;73.30
56538;DHT22;42435;53.292;6.000;2023-04-24T10:14:14;12.60;73.50
56538;DHT22;42435;53.292;6.000;2023-04-24T10:16:41;12.50;72.60
56538;DHT22;42435;53.292;6.000;2023-04-24T10:19:07;12.50;72.40
56538;DHT22;42435;53.292;6.000;2023-04-24T10:21:34;12.50;72.30
56538;DHT22;42435;53.292;6.000;2023-04-24T10:24:01;12.50;72.30
56538;DHT22;42435;53.292;6.000;2023-04-24T10:26:29;12.50;72.50
56538;DHT22;42435;53.292;6.000;2023-04-24T10:28:57;12.50;72.60
56538;DHT22;42435;53.292;6.000;2023-04-24T10:31:23;12.50;72.00
56538;DHT22;42435;53.292;6.000;2023-04-24T10:33:50;12.50;71.70
56538;DHT22;42435;53.292;6.000;2023-04-24T10:36:17;12.40;70.80
56538;DHT22;42435;53.292;6.000;2023-04-24T10:38:45;12.30;70.90
56538;DHT22;42435;53.292;6.000;2023-04-24T10:41:16;12.40;71.00
56538;DHT22;42435;53.292;6.000;2023-04-24T10:43:45;12.40;71.40
56538;DHT22;42435;53.292;6.000;2023-04-24T10:46:19;12.50;71.40
56538;DHT22;42435;53.292;6.000;2023-04-24T10:48:52;12.50;70.70
56538;DHT22;42435;53.292;6.000;2023-04-24T10:51:25;12.40;70.30
56538;DHT22;42435;53.292;6.000;2023-04-24T10:54:34;12.30;70.30
56538;DHT22;42435;53.292;6.000;2023-04-24T11:00:09;12.10;69.00
56538;DHT22;42435;53.292;6.000;2023-04-24T11:02:36;12.00;69.00
56538;DHT22;42435;53.292;6.000;2023-04-24T11:05:06;12.00;69.60
56538;DHT22;42435;53.292;6.000;2023-04-24T11:08:25;12.10;69.90
56538;DHT22;42435;53.292;6.000;2023-04-24T11:10:47;12.10;69.80
56538;DHT22;42435;53.292;6.000;2023-04-24T11:13:16;12.20;69.70
56538;DHT22;42435;53.292;6.000;2023-04-24T11:15:42;12.20;69.70
56538;DHT22;42435;53.292;6.000;2023-04-24T11:18:15;12.30;69.50
56538;DHT22;42435;53.292;6.000;2023-04-24T11:20:44;12.10;69.50
56538;DHT22;42435;53.292;6.000;2023-04-24T11:23:18;11.90;69.70
56538;DHT22;42435;53.292;6.000;2023-04-24T11:25:44;11.80;69.90
56538;DHT22;42435;53.292;6.000;2023-04-24T11:28:15;11.70;70.00
56538;DHT22;42435;53.292;6.000;2023-04-24T11:30:41;11.70;69.90
56538;DHT22;42435;53.292;6.000;2023-04-24T11:33:07;11.60;69.90
56538;DHT22;42435;53.292;6.000;2023-04-24T11:35:39;11.70;69.60
56538;DHT22;42435;53.292;6.000;2023-04-24T11:38:06;11.60;69.40
56538;DHT22;42435;53.292;6.000;2023-04-24T11:40:32;11.60;69.90
56538;DHT22;42435;53.292;6.000;2023-04-24T11:43:00;11.70;69.90
56538;DHT22;42435;53.292;6.000;2023-04-24T11:45:28;11.80;69.30
56538;DHT22;42435;53.292;6.000;2023-04-24T11:47:55;11.90;68.50
56538;DHT22;42435;53.292;6.000;2023-04-24T11:50:25;11.80;67.80
56538;DHT22;42435;53.292;6.000;2023-04-24T11:52:52;11.80;67.70
56538;DHT22;42435;53.292;6.000;2023-04-24T11:57:45;11.90;67.70
56538;DHT22;42435;53.292;6.000;2023-04-24T12:00:27;11.90;67.60
56538;DHT22;42435;53.292;6.000;2023-04-24T12:03:13;11.90;67.80
56538;DHT22;42435;53.292;6.000;2023-04-24T12:05:39;11.80;67.80
56538;DHT22;42435;53.292;6.000;2023-04-24T12:08:05;11.70;67.80
56538;DHT22;42435;53.292;6.000;2023-04-24T12:10:32;11.60;68.20
56538;DHT22;42435;53.292;6.000;2023-04-24T12:12:59;11.60;68.60
56538;DHT22;42435;53.292;6.000;2023-04-24T12:15:26;11.60;68.60
56538;DHT22;42435;53.292;6.000;2023-04-24T12:17:52;11.50;68.50
56538;DHT22;42435;53.292;6.000;2023-04-24T12:20:26;11.60;68.80
56538;DHT22;42435;53.292;6.000;2023-04-24T12:22:53;11.60;68.90
56538;DHT22;42435;53.292;6.000;2023-04-24T12:25:21;11.60;69.00
56538;DHT22;42435;53.292;6.000;2023-04-24T12:28:14;11.60;68.60
56538;DHT22;42435;53.292;6.000;2023-04-24T12:30:48;11.40;68.70
56538;DHT22;42435;53.292;6.000;2023-04-24T12:33:19;11.30;68.60
56538;DHT22;42435;53.292;6.000;2023-04-24T12:35:45;11.30;68.70
56538;DHT22;42435;53.292;6.000;2023-04-24T12:38:13;11.20;68.90
56538;DHT22;42435;53.292;6.000;2023-04-24T12:40:39;11.20;69.10
56538;DHT22;42435;53.292;6.000;2023-04-24T12:43:20;11.20;69.20
56538;DHT22;42435;53.292;6.000;2023-04-24T12:45:52;11.10;69.20
56538;DHT22;42435;53.292;6.000;2023-04-24T12:48:17;11.20;69.00
56538;DHT22;42435;53.292;6.000;2023-04-24T12:50:43;11.20;68.70
56538;DHT22;42435;53.292;6.000;2023-04-24T12:53:09;11.30;68.60
56538;DHT22;42435;53.292;6.000;2023-04-24T12:55:35;11.30;68.30
56538;DHT22;42435;53.292;6.000;2023-04-24T12:58:01;11.40;68.00
56538;DHT22;42435;53.292;6.000;2023-04-24T13:00:28;11.40;67.90
56538;DHT22;42435;53.292;6.000;2023-04-24T13:02:54;11.40;67.80
56538;DHT22;42435;53.292;6.000;2023-04-24T13:05:20;11.40;68.00
56538;DHT22;42435;53.292;6.000;2023-04-24T13:07:45;11.40;67.90
56538;DHT22;42435;53.292;6.000;2023-04-24T13:10:12;11.40;68.30
56538;DHT22;42435;53.292;6.000;2023-04-24T13:12:38;11.30;69.10
56538;DHT22;42435;53.292;6.000;2023-04-24T13:15:05;11.20;69.80
56538;DHT22;42435;53.292;6.000;2023-04-24T13:17:31;11.20;70.20
56538;DHT22;42435;53.292;6.000;2023-04-24T13:31:11;10.60;73.30
56538;DHT22;42435;53.292;6.000;2023-04-24T13:33:36;10.60;73.70
56538;DHT22;42435;53.292;6.000;2023-04-24T13:36:02;10.60;74.10
56538;DHT22;42435;53.292;6.000;2023-04-24T13:38:30;10.60;74.60
56538;DHT22;42435;53.292;6.000;2023-04-24T13:40:56;10.70;74.40
56538;DHT22;42435;53.292;6.000;2023-04-24T13:43:22;10.70;74.20
56538;DHT22;42435;53.292;6.000;2023-04-24T13:45:47;10.70;74.10
56538;DHT22;42435;53.292;6.000;2023-04-24T13:48:13;10.80;73.90
56538;DHT22;42435;53.292;6.000;2023-04-24T13:50:41;10.80;73.90
56538;DHT22;42435;53.292;6.000;2023-04-24T13:53:07;10.70;73.90
56538;DHT22;42435;53.292;6.000;2023-04-24T13:55:32;10.70;74.20
56538;DHT22;42435;53.292;6.000;2023-04-24T13:57:58;10.60;74.50
56538;DHT22;42435;53.292;6.000;2023-04-24T14:00:24;10.60;74.80
56538;DHT22;42435;53.292;6.000;2023-04-24T14:02:49;10.50;75.00
56538;DHT22;42435;53.292;6.000;2023-04-24T14:05:15;10.60;75.10
56538;DHT22;42435;53.292;6.000;2023-04-24T14:07:41;10.60;75.00
56538;DHT22;42435;53.292;6.000;2023-04-24T14:10:07;10.60;74.90
56538;DHT22;42435;53.292;6.000;2023-04-24T14:12:34;10.60;74.70
56538;DHT22;42435;53.292;6.000;2023-04-24T14:14:59;10.60;74.70
56538;DHT22;42435;53.292;6.000;2023-04-24T14:17:27;10.60;74.90
56538;DHT22;42435;53.292;6.000;2023-04-24T14:19:53;10.50;75.20
56538;DHT22;42435;53.292;6.000;2023-04-24T14:22:21;10.50;75.40
56538;DHT22;42435;53.292;6.000;2023-04-24T14:24:47;10.50;75.60
56538;DHT22;42435;53.292;6.000;2023-04-24T14:27:13;10.50;75.90
56538;DHT22;42435;53.292;6.000;2023-04-24T14:29:38;10.60;76.00
56538;DHT22;42435;53.292;6.000;2023-04-24T14:35:45;10.60;76.00
56538;DHT22;42435;53.292;6.000;2023-04-24T14:38:11;10.60;75.50
56538;DHT22;42435;53.292;6.000;2023-04-24T14:40:37;10.50;75.40
56538;DHT22;42435;53.292;6.000;2023-04-24T14:43:03;10.50;75.70
56538;DHT22;42435;53.292;6.000;2023-04-24T14:45:29;10.50;75.90
56538;DHT22;42435;53.292;6.000;2023-04-24T14:47:55;10.50;76.10
56538;DHT22;42435;53.292;6.000;2023-04-24T14:50:21;10.40;76.20
56538;DHT22;42435;53.292;6.000;2023-04-24T14:52:47;10.40;76.20
56538;DHT22;42435;53.292;6.000;2023-04-24T14:55:16;10.40;76.30
56538;DHT22;42435;53.292;6.000;2023-04-24T14:57:42;10.50;76.30
56538;DHT22;42435;53.292;6.000;2023-04-24T15:00:09;10.50;76.20
56538;DHT22;42435;53.292;6.000;2023-04-24T15:02:36;10.60;76.10
56538;DHT22;42435;53.292;6.000;2023-04-24T15:05:05;10.60;75.60
56538;DHT22;42435;53.292;6.000;2023-04-24T15:07:31;10.60;75.40
56538;DHT22;42435;53.292;6.000;2023-04-24T15:09:57;10.50;75.40
56538;DHT22;42435;53.292;6.000;2023-04-24T15:12:25;10.50;75.70
56538;DHT22;42435;53.292;6.000;2023-04-24T15:14:51;10.40;76.30
56538;DHT22;42435;53.292;6.000;2023-04-24T15:17:17;10.30;76.90
56538;DHT22;42435;53.292;6.000;2023-04-24T15:19:43;10.20;77.70
56538;DHT22;42435;53.292;6.000;2023-04-24T15:22:10;10.20;78.30
56538;DHT22;42435;53.292;6.000;2023-04-24T15:24:35;10.10;78.80
56538;DHT22;42435;53.292;6.000;2023-04-24T15:27:01;10.10;79.20
56538;DHT22;42435;53.292;6.000;2023-04-24T15:29:27;10.10;79.40
56538;DHT22;42435;53.292;6.000;2023-04-24T15:31:56;10.00;79.80
56538;DHT22;42435;53.292;6.000;2023-04-24T15:34:21;10.00;80.10
56538;DHT22;42435;53.292;6.000;2023-04-24T15:36:47;9.90;79.90
56538;DHT22;42435;53.292;6.000;2023-04-24T15:39:12;9.90;79.80
56538;DHT22;42435;53.292;6.000;2023-04-24T15:41:38;9.80;79.90
56538;DHT22;42435;53.292;6.000;2023-04-24T15:44:03;9.80;80.30
56538;DHT22;42435;53.292;6.000;2023-04-24T15:46:29;9.80;80.70
56538;DHT22;42435;53.292;6.000;2023-04-24T15:48:55;9.80;80.80
56538;DHT22;42435;53.292;6.000;2023-04-24T15:51:21;9.80;81.10